createdAt,value
2022-10-05T00:00:55.652Z,16.02
2022-10-05T00:03:24.108Z,15.95
2022-10-05T00:05:50.642Z,15.98
2022-10-05T00:08:25.144Z,15.91
2022-10-05T00:10:52.473Z,15.85
2022-10-05T00:13:28.113Z,15.96
2022-10-05T00:16:04.885Z,15.81
2022-10-05T00:18:32.543Z,15.86
2022-10-05T00:20:59.919Z,15.86
2022-10-05T00:23:30.919Z,15.82
2022-10-05T00:26:06.681Z,15.82
2022-10-05T00:28:33.163Z,15.85
2022-10-05T00:31:00.955Z,15.88
2022-10-05T00:33:27.935Z,15.81
2022-10-05T00:35:55.450Z,15.85
2022-10-05T00:38:22.365Z,15.80
2022-10-05T00:41:11.492Z,15.80
2022-10-05T00:44:08.268Z,15.75
2022-10-05T00:46:53.708Z,15.77
2022-10-05T00:49:43.550Z,15.76
2022-10-05T00:52:43.913Z,15.77
2022-10-05T00:55:30.665Z,15.79
2022-10-05T00:58:25.047Z,15.77
2022-10-05T01:01:27.194Z,15.73
2022-10-05T01:03:53.666Z,15.70
2022-10-05T01:06:43.444Z,15.68
2022-10-05T01:09:35.737Z,15.73
2022-10-05T01:12:09.002Z,15.87
2022-10-05T01:14:56.258Z,15.68
2022-10-05T01:17:45.140Z,15.65
2022-10-05T01:20:27.949Z,15.57
2022-10-05T01:23:22.124Z,15.60
2022-10-05T01:26:07.357Z,15.54
2022-10-05T01:28:44.035Z,15.62
2022-10-05T01:31:39.651Z,15.59
2022-10-05T01:34:43.017Z,15.53
2022-10-05T01:37:29.655Z,15.50
2022-10-05T01:40:00.492Z,15.46
2022-10-05T01:42:59.024Z,15.49
2022-10-05T01:45:52.857Z,15.45
2022-10-05T01:48:47.503Z,15.44
2022-10-05T01:51:41.953Z,15.47
2022-10-05T01:54:21.965Z,15.44
2022-10-05T01:57:29.999Z,15.49
2022-10-05T02:00:10.069Z,15.50
2022-10-05T02:02:50.328Z,15.32
2022-10-05T02:05:55.463Z,15.33
2022-10-05T02:08:30.324Z,15.36
2022-10-05T02:11:06.076Z,15.31
2022-10-05T02:13:32.636Z,15.26
2022-10-05T02:16:35.725Z,15.30
2022-10-05T02:19:11.836Z,15.19
2022-10-05T02:21:45.086Z,15.23
2022-10-05T02:24:22.053Z,15.15
2022-10-05T02:26:52.733Z,15.17
2022-10-05T02:29:23.829Z,15.12
2022-10-05T02:32:00.404Z,15.17
2022-10-05T02:34:41.454Z,15.23
2022-10-05T02:37:34.685Z,15.25
2022-10-05T02:40:41.411Z,15.21
2022-10-05T02:43:32.738Z,15.18
2022-10-05T02:46:15.243Z,15.13
2022-10-05T02:48:54.936Z,15.15
2022-10-05T02:51:30.229Z,15.16
2022-10-05T02:53:56.646Z,15.14
2022-10-05T02:56:44.505Z,15.09
2022-10-05T02:59:21.833Z,15.04
2022-10-05T03:01:56.267Z,15.09
2022-10-05T03:04:38.381Z,15.09
2022-10-05T03:07:20.817Z,15.08
2022-10-05T03:10:05.887Z,15.08
2022-10-05T03:12:52.921Z,15.05
2022-10-05T03:15:40.133Z,15.03
2022-10-05T03:18:18.875Z,15.04
2022-10-05T03:21:09.997Z,15.03
2022-10-05T03:23:42.585Z,15.00
2022-10-05T03:26:32.616Z,15.03
2022-10-05T03:29:06.469Z,14.97
2022-10-05T03:31:59.154Z,14.99
2022-10-05T03:34:32.973Z,14.96
2022-10-05T03:37:07.242Z,15.00
2022-10-05T03:39:46.471Z,14.97
2022-10-05T03:42:59.756Z,15.03
2022-10-05T03:45:49.274Z,14.99
2022-10-05T03:48:23.357Z,14.88
2022-10-05T03:51:05.099Z,14.99
2022-10-05T03:53:42.217Z,15.11
2022-10-05T03:56:18.206Z,14.98
2022-10-05T03:59:03.782Z,14.99
2022-10-05T04:01:42.172Z,14.91
2022-10-05T04:04:15.717Z,14.93
2022-10-05T04:06:47.999Z,14.90
2022-10-05T04:09:20.553Z,14.92
2022-10-05T04:11:54.123Z,14.90
2022-10-05T04:14:37.824Z,14.89
2022-10-05T04:17:33.587Z,14.89
2022-10-05T04:20:06.091Z,14.84
2022-10-05T04:22:43.834Z,14.84
2022-10-05T04:25:29.127Z,14.88
2022-10-05T04:28:17.397Z,14.79
2022-10-05T04:30:47.698Z,14.75
2022-10-05T04:33:15.923Z,14.76
2022-10-05T04:35:50.093Z,14.74
2022-10-05T04:38:49.087Z,14.78
2022-10-05T04:41:33.948Z,14.76
2022-10-05T04:44:39.778Z,14.74
2022-10-05T04:47:28.599Z,14.68
2022-10-05T04:50:04.316Z,14.72
2022-10-05T04:52:36.650Z,14.70
2022-10-05T04:55:30.144Z,14.73
2022-10-05T04:58:17.633Z,14.73
2022-10-05T05:01:12.966Z,14.70
2022-10-05T05:04:04.552Z,14.72
2022-10-05T05:06:45.621Z,14.69
2022-10-05T05:09:38.078Z,14.69
2022-10-05T05:12:10.493Z,14.67
2022-10-05T05:14:53.679Z,14.70
2022-10-05T05:17:34.056Z,14.70
2022-10-05T05:20:18.235Z,14.71
2022-10-05T05:23:08.929Z,14.74
2022-10-05T05:26:05.778Z,14.68
2022-10-05T05:28:58.506Z,14.72
2022-10-05T05:31:33.207Z,14.73
2022-10-05T05:34:19.999Z,14.70
2022-10-05T05:37:09.166Z,14.70
2022-10-05T05:39:44.729Z,14.68
2022-10-05T05:42:21.476Z,14.69
2022-10-05T05:44:56.013Z,14.68
2022-10-05T05:47:37.756Z,14.67
2022-10-05T05:50:33.193Z,14.69
2022-10-05T05:53:10.867Z,14.69
2022-10-05T05:55:46.139Z,14.62
2022-10-05T05:58:27.273Z,14.63
2022-10-05T06:01:20.226Z,14.57
2022-10-05T06:04:10.653Z,14.59
2022-10-05T06:06:42.372Z,14.56
2022-10-05T06:09:43.208Z,14.58
2022-10-05T06:12:41.475Z,14.50
2022-10-05T06:15:24.484Z,14.49
2022-10-05T06:17:55.868Z,14.52
2022-10-05T06:20:30.699Z,14.51
2022-10-05T06:23:04.777Z,14.53
2022-10-05T06:25:50.716Z,14.59
2022-10-05T06:28:19.526Z,14.56
2022-10-05T06:31:11.257Z,14.58
2022-10-05T06:33:52.391Z,14.52
2022-10-05T06:36:59.549Z,14.57
2022-10-05T06:39:33.483Z,14.52
2022-10-05T06:42:22.423Z,14.52
2022-10-05T06:45:38.655Z,14.57
2022-10-05T06:48:24.387Z,14.57
2022-10-05T06:51:26.628Z,14.55
2022-10-05T06:54:28.019Z,14.59
2022-10-05T06:57:33.179Z,14.61
2022-10-05T07:00:15.809Z,14.63
2022-10-05T07:02:52.240Z,14.65
2022-10-05T07:05:24.805Z,14.60
2022-10-05T07:08:13.637Z,14.65
2022-10-05T07:11:07.270Z,14.59
2022-10-05T07:13:55.308Z,14.62
2022-10-05T07:16:50.491Z,14.66
2022-10-05T07:19:44.972Z,14.69
2022-10-05T07:22:23.654Z,14.69
2022-10-05T07:25:21.168Z,14.72
2022-10-05T07:27:55.631Z,14.72
2022-10-05T07:30:22.672Z,14.74
2022-10-05T07:32:55.887Z,14.77
2022-10-05T07:35:51.625Z,14.76
2022-10-05T07:38:45.871Z,14.80
2022-10-05T07:41:23.798Z,14.81
2022-10-05T07:44:02.434Z,14.81
2022-10-05T07:46:51.125Z,14.82
2022-10-05T07:49:32.442Z,14.83
2022-10-05T07:52:06.835Z,14.82
2022-10-05T07:54:44.150Z,14.86
2022-10-05T07:57:29.886Z,14.89
2022-10-05T08:00:05.785Z,14.88
2022-10-05T08:02:59.952Z,14.90
2022-10-05T08:05:30.924Z,14.94
2022-10-05T08:08:13.319Z,14.96
2022-10-05T08:10:55.111Z,14.98
2022-10-05T08:13:35.135Z,14.99
2022-10-05T08:16:05.851Z,15.02
2022-10-05T08:19:00.503Z,15.06
2022-10-05T08:21:40.097Z,15.07
2022-10-05T08:24:18.932Z,15.08
2022-10-05T08:26:51.828Z,15.12
2022-10-05T08:29:32.869Z,15.15
2022-10-05T08:32:05.052Z,15.16
2022-10-05T08:34:53.315Z,15.19
2022-10-05T08:37:40.521Z,15.21
2022-10-05T08:40:18.858Z,15.24
2022-10-05T08:43:37.608Z,15.31
2022-10-05T08:46:22.354Z,15.32
2022-10-05T08:49:19.581Z,15.37
2022-10-05T08:52:23.587Z,15.39
2022-10-05T08:55:22.848Z,15.43
2022-10-05T08:58:18.448Z,15.46
2022-10-05T09:01:14.253Z,15.45
2022-10-05T09:04:11.431Z,15.51
2022-10-05T09:07:16.356Z,15.54
2022-10-05T09:10:00.811Z,15.57
2022-10-05T09:12:50.191Z,15.61
2022-10-05T09:15:52.224Z,15.63
2022-10-05T09:18:37.440Z,15.71
2022-10-05T09:21:13.989Z,15.71
2022-10-05T09:23:44.929Z,15.70
2022-10-05T09:26:50.073Z,15.78
2022-10-05T09:29:38.389Z,15.78
2022-10-05T09:32:40.712Z,15.81
2022-10-05T09:35:21.204Z,15.81
2022-10-05T09:37:59.909Z,15.88
2022-10-05T09:40:54.996Z,15.90
2022-10-05T09:43:40.232Z,15.94
2022-10-05T09:46:21.894Z,16.00
2022-10-05T09:49:11.437Z,16.03
2022-10-05T09:52:06.041Z,16.06
2022-10-05T09:54:56.783Z,16.10
2022-10-05T09:57:53.203Z,16.15
2022-10-05T10:00:34.767Z,16.15
2022-10-05T10:03:52.272Z,16.20
2022-10-05T10:06:39.680Z,16.24
2022-10-05T10:09:18.277Z,16.29
2022-10-05T10:12:16.886Z,16.33
2022-10-05T10:15:07.942Z,16.34
2022-10-05T10:17:53.815Z,16.42
2022-10-05T10:20:20.229Z,16.43
2022-10-05T10:23:09.767Z,16.50
2022-10-05T10:25:58.388Z,16.48
2022-10-05T10:28:43.352Z,16.56
2022-10-05T10:31:37.722Z,16.56
2022-10-05T10:35:04.020Z,16.68
2022-10-05T10:37:58.434Z,16.75
2022-10-05T10:40:38.887Z,16.87
2022-10-05T10:43:41.082Z,16.95
2022-10-05T10:46:20.554Z,17.00
2022-10-05T10:49:25.987Z,17.01
2022-10-05T10:52:09.005Z,17.03
2022-10-05T10:54:58.373Z,17.06
2022-10-05T10:57:44.766Z,17.06
2022-10-05T11:00:39.120Z,17.10
2022-10-05T11:03:42.064Z,17.11
2022-10-05T11:06:33.366Z,17.13
2022-10-05T11:09:31.442Z,17.18
2022-10-05T11:12:10.424Z,17.23
2022-10-05T11:15:06.394Z,17.27
2022-10-05T11:17:59.419Z,17.29
2022-10-05T11:20:59.729Z,17.31
2022-10-05T11:23:47.559Z,17.40
2022-10-05T11:26:57.855Z,17.42
2022-10-05T11:30:10.613Z,17.51
2022-10-05T11:32:56.137Z,17.54
2022-10-05T11:35:36.418Z,17.64
2022-10-05T11:38:36.704Z,17.71
2022-10-05T11:41:12.221Z,17.80
2022-10-05T11:43:47.464Z,17.87
2022-10-05T11:46:38.714Z,17.95
2022-10-05T11:49:21.879Z,18.00
2022-10-05T11:52:10.032Z,18.05
2022-10-05T11:55:10.350Z,18.06
2022-10-05T11:57:47.899Z,18.12
2022-10-05T12:00:23.708Z,18.21
2022-10-05T12:03:03.105Z,18.25
2022-10-05T12:05:48.197Z,18.33
2022-10-05T12:08:53.663Z,18.38
2022-10-05T12:11:44.022Z,18.52
2022-10-05T12:14:17.867Z,18.62
2022-10-05T12:16:49.446Z,18.68
2022-10-05T12:19:29.732Z,18.75
2022-10-05T12:21:56.226Z,18.86
2022-10-05T12:24:37.576Z,18.88
2022-10-05T12:27:25.234Z,18.85
2022-10-05T12:30:18.602Z,19.02
2022-10-05T12:32:55.874Z,19.14
2022-10-05T12:35:48.406Z,19.26
2022-10-05T12:39:03.534Z,19.27
2022-10-05T12:41:38.411Z,19.38
2022-10-05T12:44:11.229Z,19.53
2022-10-05T12:47:03.922Z,19.66
2022-10-05T12:50:05.349Z,19.68
2022-10-05T12:53:14.915Z,19.71
2022-10-05T12:56:06.029Z,19.66
2022-10-05T12:58:38.915Z,19.62
2022-10-05T13:01:25.318Z,19.61
2022-10-05T13:04:38.341Z,19.69
2022-10-05T13:07:12.658Z,19.83
2022-10-05T13:09:54.657Z,19.86
2022-10-05T13:12:38.693Z,19.91
2022-10-05T13:15:20.045Z,19.92
2022-10-05T13:18:14.956Z,19.97
2022-10-05T13:20:54.339Z,20.03
2022-10-05T13:23:49.497Z,19.97
2022-10-05T13:26:27.669Z,19.89
2022-10-05T13:29:26.713Z,19.89
2022-10-05T13:32:15.203Z,19.79
2022-10-05T13:35:11.380Z,19.88
2022-10-05T13:38:08.335Z,19.94
2022-10-05T13:40:57.877Z,19.88
2022-10-05T13:43:31.688Z,19.90
2022-10-05T13:46:12.660Z,19.85
2022-10-05T13:49:00.729Z,19.78
2022-10-05T13:51:54.556Z,19.81
2022-10-05T13:54:20.965Z,19.70
2022-10-05T13:57:08.676Z,19.69
2022-10-05T13:59:55.423Z,19.66
2022-10-05T14:02:38.198Z,19.61
2022-10-05T14:05:19.761Z,19.60
2022-10-05T14:07:51.127Z,19.54
2022-10-05T14:10:32.661Z,19.49
2022-10-05T14:13:00.805Z,19.51
2022-10-05T14:15:38.461Z,19.47
2022-10-05T14:18:28.601Z,19.46
2022-10-05T14:21:13.171Z,19.38
2022-10-05T14:23:40.064Z,19.35
2022-10-05T14:26:39.064Z,19.37
2022-10-05T14:29:14.320Z,19.41
2022-10-05T14:31:48.004Z,19.47
2022-10-05T14:34:41.829Z,19.49
2022-10-05T14:37:24.635Z,19.45
2022-10-05T14:39:54.599Z,19.32
2022-10-05T14:42:28.671Z,19.25
2022-10-05T14:45:17.649Z,19.27
2022-10-05T14:48:02.073Z,19.23
2022-10-05T14:50:31.245Z,19.21
2022-10-05T14:53:21.126Z,19.20
2022-10-05T14:56:25.133Z,19.16
2022-10-05T14:59:21.196Z,19.10
2022-10-05T15:02:19.649Z,19.17
2022-10-05T15:05:15.208Z,19.12
2022-10-05T15:07:44.414Z,19.10
2022-10-05T15:10:38.038Z,19.05
2022-10-05T15:13:24.089Z,18.98
2022-10-05T15:15:56.765Z,18.91
2022-10-05T15:18:32.001Z,18.77
2022-10-05T15:21:13.976Z,18.69
2022-10-05T15:23:47.179Z,18.56
2022-10-05T15:26:25.065Z,18.53
2022-10-05T15:29:01.405Z,18.41
2022-10-05T15:31:42.816Z,18.36
2022-10-05T15:34:42.021Z,18.41
2022-10-05T15:37:17.691Z,18.38
2022-10-05T15:39:59.962Z,18.29
2022-10-05T15:42:38.197Z,18.19
2022-10-05T15:45:30.519Z,18.19
2022-10-05T15:48:07.827Z,18.19
2022-10-05T15:51:16.886Z,18.17
2022-10-05T15:54:43.151Z,18.15
2022-10-05T15:57:20.739Z,18.09
2022-10-05T16:00:03.974Z,18.02
2022-10-05T16:03:01.888Z,18.00
2022-10-05T16:06:04.166Z,18.09
2022-10-05T16:08:51.746Z,18.04
2022-10-05T16:11:36.541Z,18.02
2022-10-05T16:14:40.537Z,18.03
2022-10-05T16:17:44.907Z,18.07
2022-10-05T16:20:42.800Z,18.05
2022-10-05T16:23:09.222Z,17.98
2022-10-05T16:26:01.362Z,17.96
2022-10-05T16:29:25.276Z,18.00
2022-10-05T16:32:04.291Z,18.00
2022-10-05T16:34:49.557Z,18.02
2022-10-05T16:37:45.305Z,17.98
2022-10-05T16:40:20.283Z,17.92
2022-10-05T16:43:02.300Z,18.02
2022-10-05T16:45:47.065Z,18.00
2022-10-05T16:48:27.892Z,18.00
2022-10-05T16:51:23.150Z,17.96
2022-10-05T16:54:01.396Z,18.01
2022-10-05T16:56:37.451Z,18.07
2022-10-05T16:59:36.589Z,18.04
2022-10-05T17:02:22.613Z,18.01
2022-10-05T17:05:22.400Z,17.99
2022-10-05T17:08:03.754Z,17.99
2022-10-05T17:10:38.202Z,17.91
2022-10-05T17:13:07.592Z,17.95
2022-10-05T17:16:04.057Z,18.01
2022-10-05T17:19:00.566Z,18.03
2022-10-05T17:21:41.303Z,17.97
2022-10-05T17:24:33.570Z,18.00
2022-10-05T17:27:17.641Z,17.94
2022-10-05T17:29:51.780Z,17.91
2022-10-05T17:32:18.253Z,17.93
2022-10-05T17:35:04.033Z,17.98
2022-10-05T17:37:31.765Z,17.92
2022-10-05T17:39:58.909Z,17.98
2022-10-05T17:42:31.557Z,17.97
2022-10-05T17:45:00.007Z,17.93
2022-10-05T17:47:58.474Z,17.95
2022-10-05T17:51:01.848Z,17.95
2022-10-05T17:53:52.737Z,17.97
2022-10-05T17:56:21.988Z,17.94
2022-10-05T17:58:54.321Z,17.97
2022-10-05T18:01:40.361Z,17.95
2022-10-05T18:04:13.087Z,17.96
2022-10-05T18:06:48.039Z,17.96
2022-10-05T18:09:16.926Z,17.95
2022-10-05T18:11:47.945Z,17.99
2022-10-05T18:14:25.061Z,18.01
2022-10-05T18:17:02.011Z,17.96
2022-10-05T18:19:33.103Z,17.98
2022-10-05T18:22:06.056Z,17.93
2022-10-05T18:24:52.970Z,18.03
2022-10-05T18:27:49.656Z,18.06
2022-10-05T18:30:25.072Z,17.98
2022-10-05T18:33:27.983Z,17.99
2022-10-05T18:36:16.965Z,17.98
2022-10-05T18:39:19.863Z,17.98
2022-10-05T18:41:57.747Z,17.96
2022-10-05T18:44:43.226Z,18.02
2022-10-05T18:47:34.414Z,17.99
2022-10-05T18:50:17.323Z,17.99
2022-10-05T18:53:11.887Z,18.01
2022-10-05T18:55:45.045Z,17.98
2022-10-05T18:58:22.376Z,17.99
2022-10-05T19:01:10.645Z,17.99
2022-10-05T19:04:13.932Z,18.00
2022-10-05T19:06:41.214Z,18.00
2022-10-05T19:09:35.248Z,18.00
2022-10-05T19:12:29.253Z,17.99
2022-10-05T19:15:06.844Z,18.00
2022-10-05T19:17:48.050Z,18.05
2022-10-05T19:20:27.096Z,18.06
2022-10-05T19:23:22.231Z,18.06
2022-10-05T19:25:55.360Z,18.05
2022-10-05T19:28:34.100Z,18.05
2022-10-05T19:31:12.844Z,18.07
2022-10-05T19:34:01.509Z,18.07
2022-10-05T19:36:43.804Z,18.05
2022-10-05T19:39:21.315Z,18.01
2022-10-05T19:42:15.291Z,17.98
2022-10-05T19:45:00.096Z,17.88
2022-10-05T19:48:03.829Z,17.79
2022-10-05T19:50:33.546Z,17.62
2022-10-05T19:53:08.050Z,17.57
2022-10-05T19:55:39.491Z,17.51
2022-10-05T19:58:22.665Z,17.57
2022-10-05T20:01:07.789Z,17.52
2022-10-05T20:03:37.857Z,17.52
2022-10-05T20:06:07.262Z,17.48
2022-10-05T20:08:39.600Z,17.42
2022-10-05T20:11:09.791Z,17.45
2022-10-05T20:13:39.054Z,17.37
2022-10-05T20:16:33.456Z,17.41
2022-10-05T20:19:18.633Z,17.38
2022-10-05T20:21:48.500Z,17.41
2022-10-05T20:24:23.355Z,17.35
2022-10-05T20:27:01.902Z,17.29
2022-10-05T20:29:30.118Z,17.27
2022-10-05T20:31:56.842Z,17.29
2022-10-05T20:34:24.017Z,17.31
2022-10-05T20:36:51.058Z,17.28
2022-10-05T20:39:18.646Z,17.23
2022-10-05T20:41:45.632Z,17.19
2022-10-05T20:44:13.239Z,17.18
2022-10-05T20:46:41.605Z,17.14
2022-10-05T20:49:10.550Z,17.18
2022-10-05T20:51:40.382Z,17.11
2022-10-05T20:54:07.889Z,17.09
2022-10-05T20:56:34.771Z,17.05
2022-10-05T20:59:01.318Z,17.04
2022-10-05T21:01:28.854Z,17.00
2022-10-05T21:03:55.786Z,16.98
2022-10-05T21:06:22.776Z,16.97
2022-10-05T21:08:51.327Z,17.02
2022-10-05T21:11:17.842Z,16.97
2022-10-05T21:13:47.541Z,16.91
2022-10-05T21:16:16.648Z,16.90
2022-10-05T21:18:46.751Z,16.80
2022-10-05T21:21:17.942Z,16.72
2022-10-05T21:23:45.699Z,16.61
2022-10-05T21:26:12.780Z,16.47
2022-10-05T21:28:39.905Z,16.35
2022-10-05T21:31:08.095Z,16.17
2022-10-05T21:33:35.387Z,16.02
2022-10-05T21:36:01.989Z,15.89
2022-10-05T21:38:29.603Z,15.83
2022-10-05T21:40:56.381Z,15.81
2022-10-05T21:43:22.831Z,15.76
2022-10-05T21:45:50.365Z,15.78
2022-10-05T21:48:18.470Z,15.75
2022-10-05T21:50:45.676Z,15.75
2022-10-05T21:53:14.673Z,15.78
2022-10-05T21:55:44.095Z,15.72
2022-10-05T21:58:13.248Z,15.73
2022-10-05T22:00:40.998Z,15.72
2022-10-05T22:03:08.528Z,15.65
2022-10-05T22:05:35.546Z,15.65
2022-10-05T22:08:03.401Z,15.61
2022-10-05T22:10:30.366Z,15.71
2022-10-05T22:13:01.493Z,15.73
2022-10-05T22:15:29.960Z,15.60
2022-10-05T22:17:59.711Z,15.57
2022-10-05T22:20:30.111Z,15.53
2022-10-05T22:22:56.690Z,15.54
2022-10-05T22:25:23.154Z,15.45
2022-10-05T22:27:50.029Z,15.41
2022-10-05T22:30:16.927Z,15.37
2022-10-05T22:32:43.998Z,15.37
2022-10-05T22:35:11.773Z,15.34
2022-10-05T22:37:38.637Z,15.37
2022-10-05T22:40:06.655Z,15.34
2022-10-05T22:42:33.616Z,15.34
2022-10-05T22:45:00.165Z,15.25
2022-10-05T22:47:26.629Z,15.33
2022-10-05T22:49:53.100Z,15.16
2022-10-05T22:52:19.569Z,15.13
2022-10-05T22:54:46.016Z,15.15
2022-10-05T22:57:12.469Z,15.06
2022-10-05T22:59:38.935Z,15.02
2022-10-05T23:02:05.546Z,15.09
2022-10-05T23:04:32.070Z,14.98
2022-10-05T23:06:58.900Z,15.06
2022-10-05T23:09:25.364Z,15.12
2022-10-05T23:11:54.134Z,15.07
2022-10-05T23:14:20.917Z,15.09
2022-10-05T23:16:47.736Z,15.05
2022-10-05T23:19:14.259Z,15.06
2022-10-05T23:21:40.719Z,15.06
2022-10-05T23:24:07.441Z,15.07
2022-10-05T23:26:34.635Z,15.02
2022-10-05T23:29:01.127Z,14.96
2022-10-05T23:31:30.655Z,14.89
2022-10-05T23:33:57.249Z,14.82
2022-10-05T23:36:26.776Z,14.84
2022-10-05T23:38:53.395Z,14.79
2022-10-05T23:41:20.303Z,14.79
2022-10-05T23:43:47.111Z,14.78
2022-10-05T23:46:14.225Z,14.85
2022-10-05T23:48:40.759Z,14.84
2022-10-05T23:51:09.414Z,14.74
2022-10-05T23:53:35.952Z,14.76
2022-10-05T23:56:02.971Z,14.80
2022-10-05T23:58:30.094Z,14.73
